sensor_id;sensor_type;location;lat;lon;timestamp;P1;durP1;ratioP1;P2;durP2;ratioP2
70071;SDS011;57434;42.794;23.302;2023-04-15T00:00:10;9.25;;;3.20;;
70071;SDS011;57434;42.794;23.302;2023-04-15T00:01:13;8.68;;;3.50;;
70071;SDS011;57434;42.794;23.302;2023-04-15T00:02:15;11.85;;;4.00;;
70071;SDS011;57434;42.794;23.302;2023-04-15T00:03:18;8.20;;;2.88;;
70071;SDS011;57434;42.794;23.302;2023-04-15T00:04:20;7.10;;;3.30;;
70071;SDS011;57434;42.794;23.302;2023-04-15T00:05:22;11.55;;;3.30;;
70071;SDS011;57434;42.794;23.302;2023-04-15T00:06:24;11.10;;;3.30;;
70071;SDS011;57434;42.794;23.302;2023-04-15T00:07:26;11.15;;;3.03;;
70071;SDS011;57434;42.794;23.302;2023-04-15T00:08:28;8.57;;;2.78;;
70071;SDS011;57434;42.794;23.302;2023-04-15T00:09:30;10.00;;;2.83;;
70071;SDS011;57434;42.794;23.302;2023-04-15T00:10:32;8.68;;;2.95;;
70071;SDS011;57434;42.794;23.302;2023-04-15T00:11:34;7.90;;;2.70;;
70071;SDS011;57434;42.794;23.302;2023-04-15T00:12:35;8.77;;;3.28;;
70071;SDS011;57434;42.794;23.302;2023-04-15T00:13:37;6.72;;;2.53;;
70071;SDS011;57434;42.794;23.302;2023-04-15T00:14:39;7.23;;;3.10;;
70071;SDS011;57434;42.794;23.302;2023-04-15T00:15:41;6.63;;;2.40;;
70071;SDS011;57434;42.794;23.302;2023-04-15T00:16:43;8.40;;;2.58;;
70071;SDS011;57434;42.794;23.302;2023-04-15T00:17:45;9.10;;;2.88;;
70071;SDS011;57434;42.794;23.302;2023-04-15T00:18:47;8.70;;;2.58;;
70071;SDS011;57434;42.794;23.302;2023-04-15T00:19:49;8.30;;;2.90;;
70071;SDS011;57434;42.794;23.302;2023-04-15T00:20:51;10.23;;;3.00;;
70071;SDS011;57434;42.794;23.302;2023-04-15T00:21:53;9.65;;;2.60;;
70071;SDS011;57434;42.794;23.302;2023-04-15T00:22:55;9.30;;;2.72;;
70071;SDS011;57434;42.794;23.302;2023-04-15T00:23:57;7.13;;;2.80;;
70071;SDS011;57434;42.794;23.302;2023-04-15T00:24:59;6.73;;;2.20;;
70071;SDS011;57434;42.794;23.302;2023-04-15T00:26:01;7.60;;;2.50;;
70071;SDS011;57434;42.794;23.302;2023-04-15T00:27:03;6.45;;;2.08;;
70071;SDS011;57434;42.794;23.302;2023-04-15T00:28:05;9.15;;;2.60;;
70071;SDS011;57434;42.794;23.302;2023-04-15T00:29:07;7.43;;;1.90;;
70071;SDS011;57434;42.794;23.302;2023-04-15T00:30:09;7.18;;;2.35;;
70071;SDS011;57434;42.794;23.302;2023-04-15T00:31:11;7.90;;;2.13;;
70071;SDS011;57434;42.794;23.302;2023-04-15T00:32:13;7.35;;;2.40;;
70071;SDS011;57434;42.794;23.302;2023-04-15T00:33:15;7.38;;;2.40;;
70071;SDS011;57434;42.794;23.302;2023-04-15T00:34:17;6.03;;;1.70;;
70071;SDS011;57434;42.794;23.302;2023-04-15T00:35:19;8.83;;;2.23;;
70071;SDS011;57434;42.794;23.302;2023-04-15T00:36:21;6.28;;;1.90;;
70071;SDS011;57434;42.794;23.302;2023-04-15T00:37:23;6.32;;;2.13;;
70071;SDS011;57434;42.794;23.302;2023-04-15T00:38:25;4.57;;;1.90;;
70071;SDS011;57434;42.794;23.302;2023-04-15T00:39:26;5.85;;;2.63;;
70071;SDS011;57434;42.794;23.302;2023-04-15T00:40:29;7.72;;;3.35;;
70071;SDS011;57434;42.794;23.302;2023-04-15T00:41:31;8.50;;;3.33;;
70071;SDS011;57434;42.794;23.302;2023-04-15T00:42:33;8.90;;;3.15;;
70071;SDS011;57434;42.794;23.302;2023-04-15T00:43:35;12.30;;;3.15;;
70071;SDS011;57434;42.794;23.302;2023-04-15T00:44:38;7.80;;;2.85;;
70071;SDS011;57434;42.794;23.302;2023-04-15T00:45:40;6.57;;;2.03;;
70071;SDS011;57434;42.794;23.302;2023-04-15T00:46:42;8.65;;;2.42;;
70071;SDS011;57434;42.794;23.302;2023-04-15T00:47:46;8.25;;;2.35;;
70071;SDS011;57434;42.794;23.302;2023-04-15T00:48:48;8.15;;;2.22;;
70071;SDS011;57434;42.794;23.302;2023-04-15T00:49:51;6.65;;;2.75;;
70071;SDS011;57434;42.794;23.302;2023-04-15T00:50:53;7.93;;;2.80;;
70071;SDS011;57434;42.794;23.302;2023-04-15T00:51:55;7.50;;;3.03;;
70071;SDS011;57434;42.794;23.302;2023-04-15T00:52:57;9.60;;;3.00;;
70071;SDS011;57434;42.794;23.302;2023-04-15T00:53:59;7.90;;;2.50;;
70071;SDS011;57434;42.794;23.302;2023-04-15T00:55:02;14.25;;;3.28;;
70071;SDS011;57434;42.794;23.302;2023-04-15T00:56:04;11.80;;;3.83;;
70071;SDS011;57434;42.794;23.302;2023-04-15T00:57:07;10.65;;;3.50;;
70071;SDS011;57434;42.794;23.302;2023-04-15T00:58:09;11.45;;;3.78;;
70071;SDS011;57434;42.794;23.302;2023-04-15T00:59:11;10.95;;;3.90;;
70071;SDS011;57434;42.794;23.302;2023-04-15T01:00:13;8.70;;;3.75;;
70071;SDS011;57434;42.794;23.302;2023-04-15T01:01:17;8.98;;;3.75;;
70071;SDS011;57434;42.794;23.302;2023-04-15T01:02:22;11.80;;;5.30;;
70071;SDS011;57434;42.794;23.302;2023-04-15T01:03:24;10.88;;;4.80;;
70071;SDS011;57434;42.794;23.302;2023-04-15T01:04:27;13.15;;;4.70;;
70071;SDS011;57434;42.794;23.302;2023-04-15T01:05:29;11.57;;;3.97;;
70071;SDS011;57434;42.794;23.302;2023-04-15T01:06:31;9.73;;;3.97;;
70071;SDS011;57434;42.794;23.302;2023-04-15T01:07:33;12.75;;;4.22;;
70071;SDS011;57434;42.794;23.302;2023-04-15T01:08:35;7.75;;;3.47;;
70071;SDS011;57434;42.794;23.302;2023-04-15T01:09:37;13.15;;;4.30;;
70071;SDS011;57434;42.794;23.302;2023-04-15T01:10:39;10.32;;;3.80;;
70071;SDS011;57434;42.794;23.302;2023-04-15T01:11:42;10.25;;;3.95;;
70071;SDS011;57434;42.794;23.302;2023-04-15T01:12:44;10.52;;;3.65;;
70071;SDS011;57434;42.794;23.302;2023-04-15T01:13:46;10.30;;;3.80;;
70071;SDS011;57434;42.794;23.302;2023-04-15T01:14:48;11.82;;;3.67;;
70071;SDS011;57434;42.794;23.302;2023-04-15T01:15:50;11.13;;;4.22;;
70071;SDS011;57434;42.794;23.302;2023-04-15T01:16:53;9.33;;;4.37;;
70071;SDS011;57434;42.794;23.302;2023-04-15T01:17:58;12.82;;;4.68;;
70071;SDS011;57434;42.794;23.302;2023-04-15T01:19:00;9.73;;;4.03;;
70071;SDS011;57434;42.794;23.302;2023-04-15T01:20:03;10.68;;;4.18;;
70071;SDS011;57434;42.794;23.302;2023-04-15T01:21:05;14.20;;;4.30;;
70071;SDS011;57434;42.794;23.302;2023-04-15T01:22:07;13.05;;;4.32;;
70071;SDS011;57434;42.794;23.302;2023-04-15T01:23:10;9.93;;;3.90;;
70071;SDS011;57434;42.794;23.302;2023-04-15T01:24:12;10.00;;;4.38;;
70071;SDS011;57434;42.794;23.302;2023-04-15T01:25:18;11.02;;;4.03;;
70071;SDS011;57434;42.794;23.302;2023-04-15T01:27:15;11.73;;;4.32;;
70071;SDS011;57434;42.794;23.302;2023-04-15T01:28:17;9.83;;;4.20;;
70071;SDS011;57434;42.794;23.302;2023-04-15T01:29:19;10.82;;;4.07;;
70071;SDS011;57434;42.794;23.302;2023-04-15T01:30:21;10.65;;;4.57;;
70071;SDS011;57434;42.794;23.302;2023-04-15T01:31:23;9.55;;;3.63;;
70071;SDS011;57434;42.794;23.302;2023-04-15T01:32:25;10.57;;;4.47;;
70071;SDS011;57434;42.794;23.302;2023-04-15T01:33:27;10.18;;;3.63;;
70071;SDS011;57434;42.794;23.302;2023-04-15T01:34:29;7.90;;;3.38;;
70071;SDS011;57434;42.794;23.302;2023-04-15T01:35:32;9.88;;;3.72;;
70071;SDS011;57434;42.794;23.302;2023-04-15T01:36:34;11.35;;;3.78;;
70071;SDS011;57434;42.794;23.302;2023-04-15T01:37:36;8.82;;;3.42;;
70071;SDS011;57434;42.794;23.302;2023-04-15T01:38:38;8.77;;;3.13;;
70071;SDS011;57434;42.794;23.302;2023-04-15T01:39:41;8.88;;;3.70;;
70071;SDS011;57434;42.794;23.302;2023-04-15T01:40:43;8.65;;;3.75;;
70071;SDS011;57434;42.794;23.302;2023-04-15T01:41:44;11.23;;;4.68;;
70071;SDS011;57434;42.794;23.302;2023-04-15T01:42:46;7.28;;;2.97;;
70071;SDS011;57434;42.794;23.302;2023-04-15T01:43:48;12.65;;;3.83;;
70071;SDS011;57434;42.794;23.302;2023-04-15T01:44:50;10.85;;;4.38;;
70071;SDS011;57434;42.794;23.302;2023-04-15T01:45:52;10.65;;;4.00;;
70071;SDS011;57434;42.794;23.302;2023-04-15T01:46:54;9.15;;;4.07;;
70071;SDS011;57434;42.794;23.302;2023-04-15T01:47:56;12.45;;;6.03;;
70071;SDS011;57434;42.794;23.302;2023-04-15T01:48:59;12.43;;;6.27;;
70071;SDS011;57434;42.794;23.302;2023-04-15T01:50:01;14.63;;;5.28;;
70071;SDS011;57434;42.794;23.302;2023-04-15T01:51:03;12.20;;;5.70;;
70071;SDS011;57434;42.794;23.302;2023-04-15T01:52:05;11.95;;;5.70;;
70071;SDS011;57434;42.794;23.302;2023-04-15T01:53:07;12.18;;;5.35;;
70071;SDS011;57434;42.794;23.302;2023-04-15T01:54:09;8.35;;;4.10;;
70071;SDS011;57434;42.794;23.302;2023-04-15T01:55:12;10.68;;;4.28;;
70071;SDS011;57434;42.794;23.302;2023-04-15T01:56:14;6.38;;;2.78;;
70071;SDS011;57434;42.794;23.302;2023-04-15T01:57:17;7.63;;;2.72;;
70071;SDS011;57434;42.794;23.302;2023-04-15T01:58:19;6.47;;;2.80;;
70071;SDS011;57434;42.794;23.302;2023-04-15T01:59:21;6.50;;;2.30;;
70071;SDS011;57434;42.794;23.302;2023-04-15T02:00:23;7.25;;;2.60;;
70071;SDS011;57434;42.794;23.302;2023-04-15T02:01:25;6.70;;;2.72;;
70071;SDS011;57434;42.794;23.302;2023-04-15T02:02:27;6.18;;;2.47;;
70071;SDS011;57434;42.794;23.302;2023-04-15T02:03:29;6.90;;;3.17;;
70071;SDS011;57434;42.794;23.302;2023-04-15T02:04:31;7.90;;;2.72;;
70071;SDS011;57434;42.794;23.302;2023-04-15T02:05:33;8.55;;;2.80;;
70071;SDS011;57434;42.794;23.302;2023-04-15T02:06:35;15.43;;;6.07;;
70071;SDS011;57434;42.794;23.302;2023-04-15T02:07:37;8.57;;;3.50;;
70071;SDS011;57434;42.794;23.302;2023-04-15T02:08:39;11.50;;;4.82;;
70071;SDS011;57434;42.794;23.302;2023-04-15T02:09:40;12.37;;;3.73;;
70071;SDS011;57434;42.794;23.302;2023-04-15T02:10:42;9.70;;;3.63;;
70071;SDS011;57434;42.794;23.302;2023-04-15T02:11:44;11.32;;;3.50;;
70071;SDS011;57434;42.794;23.302;2023-04-15T02:12:46;9.45;;;3.47;;
70071;SDS011;57434;42.794;23.302;2023-04-15T02:13:48;8.70;;;2.97;;
70071;SDS011;57434;42.794;23.302;2023-04-15T02:14:50;10.15;;;3.08;;
70071;SDS011;57434;42.794;23.302;2023-04-15T02:15:53;8.07;;;3.50;;
70071;SDS011;57434;42.794;23.302;2023-04-15T02:16:55;11.63;;;3.42;;
70071;SDS011;57434;42.794;23.302;2023-04-15T02:17:57;8.73;;;3.95;;
70071;SDS011;57434;42.794;23.302;2023-04-15T02:18:59;8.25;;;3.00;;
70071;SDS011;57434;42.794;23.302;2023-04-15T02:20:02;6.47;;;2.73;;
70071;SDS011;57434;42.794;23.302;2023-04-15T02:21:04;7.30;;;2.35;;
70071;SDS011;57434;42.794;23.302;2023-04-15T02:22:06;7.78;;;2.65;;
70071;SDS011;57434;42.794;23.302;2023-04-15T02:23:08;7.22;;;2.45;;
70071;SDS011;57434;42.794;23.302;2023-04-15T02:24:10;6.65;;;2.50;;
70071;SDS011;57434;42.794;23.302;2023-04-15T02:25:12;6.93;;;2.40;;
70071;SDS011;57434;42.794;23.302;2023-04-15T02:26:14;7.35;;;2.60;;
70071;SDS011;57434;42.794;23.302;2023-04-15T02:27:17;8.10;;;2.20;;
70071;SDS011;57434;42.794;23.302;2023-04-15T02:28:19;5.55;;;1.98;;
70071;SDS011;57434;42.794;23.302;2023-04-15T02:29:21;7.25;;;2.40;;
70071;SDS011;57434;42.794;23.302;2023-04-15T02:30:23;5.30;;;2.17;;
70071;SDS011;57434;42.794;23.302;2023-04-15T02:31:25;7.05;;;2.60;;
70071;SDS011;57434;42.794;23.302;2023-04-15T02:32:27;7.15;;;2.20;;
70071;SDS011;57434;42.794;23.302;2023-04-15T02:33:29;6.57;;;2.25;;
70071;SDS011;57434;42.794;23.302;2023-04-15T02:34:30;6.15;;;2.45;;
70071;SDS011;57434;42.794;23.302;2023-04-15T02:35:32;6.72;;;2.50;;
70071;SDS011;57434;42.794;23.302;2023-04-15T02:36:34;7.20;;;2.70;;
70071;SDS011;57434;42.794;23.302;2023-04-15T02:37:36;7.28;;;2.38;;
70071;SDS011;57434;42.794;23.302;2023-04-15T02:38:38;8.55;;;2.30;;
70071;SDS011;57434;42.794;23.302;2023-04-15T02:39:40;7.90;;;2.50;;
70071;SDS011;57434;42.794;23.302;2023-04-15T02:40:42;6.13;;;2.13;;
70071;SDS011;57434;42.794;23.302;2023-04-15T02:41:44;9.52;;;3.10;;
70071;SDS011;57434;42.794;23.302;2023-04-15T02:42:46;7.28;;;2.45;;
70071;SDS011;57434;42.794;23.302;2023-04-15T02:43:48;6.53;;;2.35;;
70071;SDS011;57434;42.794;23.302;2023-04-15T02:44:50;6.82;;;2.22;;
70071;SDS011;57434;42.794;23.302;2023-04-15T02:45:51;6.35;;;2.35;;
70071;SDS011;57434;42.794;23.302;2023-04-15T02:46:54;8.95;;;2.95;;
70071;SDS011;57434;42.794;23.302;2023-04-15T02:47:55;6.53;;;2.47;;
70071;SDS011;57434;42.794;23.302;2023-04-15T02:48:57;7.05;;;2.88;;
70071;SDS011;57434;42.794;23.302;2023-04-15T02:50:00;8.85;;;3.05;;
70071;SDS011;57434;42.794;23.302;2023-04-15T02:51:17;6.30;;;2.63;;
70071;SDS011;57434;42.794;23.302;2023-04-15T02:52:21;7.63;;;2.78;;
70071;SDS011;57434;42.794;23.302;2023-04-15T02:53:23;7.88;;;2.40;;
70071;SDS011;57434;42.794;23.302;2023-04-15T02:54:25;8.75;;;3.17;;
70071;SDS011;57434;42.794;23.302;2023-04-15T02:55:27;7.10;;;3.17;;
70071;SDS011;57434;42.794;23.302;2023-04-15T02:56:29;10.00;;;2.55;;
70071;SDS011;57434;42.794;23.302;2023-04-15T02:57:31;10.90;;;3.30;;
70071;SDS011;57434;42.794;23.302;2023-04-15T02:58:34;6.30;;;2.63;;
70071;SDS011;57434;42.794;23.302;2023-04-15T02:59:36;9.60;;;2.65;;
70071;SDS011;57434;42.794;23.302;2023-04-15T03:00:38;7.68;;;2.85;;
70071;SDS011;57434;42.794;23.302;2023-04-15T03:01:40;6.87;;;2.63;;
70071;SDS011;57434;42.794;23.302;2023-04-15T03:02:43;7.20;;;2.80;;
70071;SDS011;57434;42.794;23.302;2023-04-15T03:03:46;7.85;;;2.28;;
70071;SDS011;57434;42.794;23.302;2023-04-15T03:04:48;7.28;;;2.38;;
70071;SDS011;57434;42.794;23.302;2023-04-15T03:05:50;7.05;;;2.60;;
70071;SDS011;57434;42.794;23.302;2023-04-15T03:06:52;7.85;;;2.72;;
70071;SDS011;57434;42.794;23.302;2023-04-15T03:07:54;6.53;;;2.42;;
70071;SDS011;57434;42.794;23.302;2023-04-15T03:08:56;7.55;;;2.30;;
70071;SDS011;57434;42.794;23.302;2023-04-15T03:09:58;8.00;;;2.67;;
70071;SDS011;57434;42.794;23.302;2023-04-15T03:11:00;9.02;;;2.70;;
70071;SDS011;57434;42.794;23.302;2023-04-15T03:12:02;6.30;;;2.20;;
70071;SDS011;57434;42.794;23.302;2023-04-15T03:13:03;8.55;;;2.80;;
70071;SDS011;57434;42.794;23.302;2023-04-15T03:14:05;11.23;;;2.70;;
70071;SDS011;57434;42.794;23.302;2023-04-15T03:15:08;8.25;;;3.08;;
70071;SDS011;57434;42.794;23.302;2023-04-15T03:16:10;40.72;;;12.15;;
70071;SDS011;57434;42.794;23.302;2023-04-15T03:17:12;39.78;;;12.13;;
70071;SDS011;57434;42.794;23.302;2023-04-15T03:18:14;23.17;;;7.22;;
70071;SDS011;57434;42.794;23.302;2023-04-15T03:19:16;16.38;;;4.35;;
70071;SDS011;57434;42.794;23.302;2023-04-15T03:20:18;14.00;;;4.22;;
70071;SDS011;57434;42.794;23.302;2023-04-15T03:21:20;16.80;;;6.30;;
70071;SDS011;57434;42.794;23.302;2023-04-15T03:22:22;23.30;;;6.47;;
70071;SDS011;57434;42.794;23.302;2023-04-15T03:23:24;108.05;;;29.63;;
70071;SDS011;57434;42.794;23.302;2023-04-15T03:24:26;185.45;;;49.20;;
70071;SDS011;57434;42.794;23.302;2023-04-15T03:25:28;113.95;;;31.88;;
70071;SDS011;57434;42.794;23.302;2023-04-15T03:26:30;43.53;;;12.68;;
70071;SDS011;57434;42.794;23.302;2023-04-15T03:27:32;15.50;;;5.25;;
70071;SDS011;57434;42.794;23.302;2023-04-15T03:28:34;14.88;;;4.78;;
70071;SDS011;57434;42.794;23.302;2023-04-15T03:29:36;15.25;;;3.92;;
70071;SDS011;57434;42.794;23.302;2023-04-15T03:30:38;7.30;;;2.63;;
70071;SDS011;57434;42.794;23.302;2023-04-15T03:31:40;7.70;;;2.65;;
70071;SDS011;57434;42.794;23.302;2023-04-15T03:32:42;7.10;;;2.60;;
70071;SDS011;57434;42.794;23.302;2023-04-15T03:33:44;6.15;;;2.25;;
70071;SDS011;57434;42.794;23.302;2023-04-15T03:34:46;7.35;;;2.63;;
70071;SDS011;57434;42.794;23.302;2023-04-15T03:35:49;9.38;;;3.03;;
70071;SDS011;57434;42.794;23.302;2023-04-15T03:36:51;7.18;;;2.60;;
70071;SDS011;57434;42.794;23.302;2023-04-15T03:37:53;7.75;;;2.85;;
70071;SDS011;57434;42.794;23.302;2023-04-15T03:38:55;7.47;;;2.83;;
70071;SDS011;57434;42.794;23.302;2023-04-15T03:39:57;6.82;;;2.30;;
70071;SDS011;57434;42.794;23.302;2023-04-15T03:40:59;8.82;;;3.08;;
70071;SDS011;57434;42.794;23.302;2023-04-15T03:42:01;39.72;;;19.90;;
70071;SDS011;57434;42.794;23.302;2023-04-15T03:43:03;30.03;;;14.37;;
70071;SDS011;57434;42.794;23.302;2023-04-15T03:44:05;10.70;;;4.47;;
70071;SDS011;57434;42.794;23.302;2023-04-15T03:45:07;33.08;;;9.82;;
70071;SDS011;57434;42.794;23.302;2023-04-15T03:46:09;48.28;;;13.45;;
70071;SDS011;57434;42.794;23.302;2023-04-15T03:47:11;54.20;;;12.45;;
70071;SDS011;57434;42.794;23.302;2023-04-15T03:48:13;64.68;;;14.77;;
70071;SDS011;57434;42.794;23.302;2023-04-15T03:49:17;67.50;;;15.30;;
70071;SDS011;57434;42.794;23.302;2023-04-15T03:50:19;62.75;;;13.40;;
70071;SDS011;57434;42.794;23.302;2023-04-15T03:51:21;44.42;;;13.85;;
70071;SDS011;57434;42.794;23.302;2023-04-15T03:52:23;34.10;;;9.38;;
70071;SDS011;57434;42.794;23.302;2023-04-15T03:53:25;41.37;;;12.60;;
70071;SDS011;57434;42.794;23.302;2023-04-15T03:54:27;33.17;;;9.65;;
70071;SDS011;57434;42.794;23.302;2023-04-15T03:55:29;31.10;;;9.13;;
70071;SDS011;57434;42.794;23.302;2023-04-15T03:56:31;14.05;;;5.65;;
70071;SDS011;57434;42.794;23.302;2023-04-15T03:57:33;12.70;;;4.60;;
70071;SDS011;57434;42.794;23.302;2023-04-15T03:58:35;8.15;;;3.35;;
70071;SDS011;57434;42.794;23.302;2023-04-15T03:59:37;11.38;;;3.75;;
70071;SDS011;57434;42.794;23.302;2023-04-15T04:00:39;8.32;;;3.30;;
70071;SDS011;57434;42.794;23.302;2023-04-15T04:01:41;7.53;;;3.30;;
70071;SDS011;57434;42.794;23.302;2023-04-15T04:02:43;7.95;;;3.00;;
70071;SDS011;57434;42.794;23.302;2023-04-15T04:03:46;10.33;;;3.00;;
70071;SDS011;57434;42.794;23.302;2023-04-15T04:04:48;7.80;;;3.10;;
70071;SDS011;57434;42.794;23.302;2023-04-15T04:05:50;9.35;;;3.83;;
70071;SDS011;57434;42.794;23.302;2023-04-15T04:06:52;8.68;;;3.42;;
70071;SDS011;57434;42.794;23.302;2023-04-15T04:07:54;10.65;;;4.30;;
70071;SDS011;57434;42.794;23.302;2023-04-15T04:08:56;8.25;;;2.75;;
70071;SDS011;57434;42.794;23.302;2023-04-15T04:09:57;9.57;;;3.13;;
70071;SDS011;57434;42.794;23.302;2023-04-15T04:10:59;11.75;;;4.07;;
70071;SDS011;57434;42.794;23.302;2023-04-15T04:12:01;10.15;;;4.53;;
70071;SDS011;57434;42.794;23.302;2023-04-15T04:13:03;9.52;;;4.10;;
70071;SDS011;57434;42.794;23.302;2023-04-15T04:14:05;13.17;;;5.67;;
70071;SDS011;57434;42.794;23.302;2023-04-15T04:15:07;13.70;;;6.18;;
70071;SDS011;57434;42.794;23.302;2023-04-15T04:16:10;14.63;;;7.10;;
70071;SDS011;57434;42.794;23.302;2023-04-15T04:17:12;10.77;;;3.72;;
70071;SDS011;57434;42.794;23.302;2023-04-15T04:18:14;6.82;;;2.35;;
70071;SDS011;57434;42.794;23.302;2023-04-15T04:19:15;10.23;;;2.22;;
70071;SDS011;57434;42.794;23.302;2023-04-15T04:20:17;5.68;;;2.10;;
70071;SDS011;57434;42.794;23.302;2023-04-15T04:21:19;5.82;;;1.90;;
70071;SDS011;57434;42.794;23.302;2023-04-15T04:22:22;5.90;;;2.05;;
70071;SDS011;57434;42.794;23.302;2023-04-15T04:23:24;7.70;;;2.03;;
70071;SDS011;57434;42.794;23.302;2023-04-15T04:24:26;6.73;;;2.17;;
70071;SDS011;57434;42.794;23.302;2023-04-15T04:25:28;6.53;;;2.33;;
70071;SDS011;57434;42.794;23.302;2023-04-15T04:26:30;5.78;;;2.30;;
70071;SDS011;57434;42.794;23.302;2023-04-15T04:27:31;5.30;;;1.73;;
70071;SDS011;57434;42.794;23.302;2023-04-15T04:28:33;5.97;;;2.25;;
70071;SDS011;57434;42.794;23.302;2023-04-15T04:29:35;5.97;;;1.80;;
70071;SDS011;57434;42.794;23.302;2023-04-15T04:30:37;6.30;;;1.98;;
70071;SDS011;57434;42.794;23.302;2023-04-15T04:31:40;5.47;;;2.20;;
70071;SDS011;57434;42.794;23.302;2023-04-15T04:32:42;7.25;;;2.50;;
70071;SDS011;57434;42.794;23.302;2023-04-15T04:33:44;6.00;;;2.30;;
70071;SDS011;57434;42.794;23.302;2023-04-15T04:34:46;7.40;;;2.37;;
70071;SDS011;57434;42.794;23.302;2023-04-15T04:35:47;6.93;;;2.30;;
70071;SDS011;57434;42.794;23.302;2023-04-15T04:36:49;7.45;;;2.30;;
70071;SDS011;57434;42.794;23.302;2023-04-15T04:37:51;7.57;;;2.38;;
70071;SDS011;57434;42.794;23.302;2023-04-15T04:38:53;10.40;;;2.45;;
70071;SDS011;57434;42.794;23.302;2023-04-15T04:39:55;8.13;;;2.60;;
70071;SDS011;57434;42.794;23.302;2023-04-15T04:40:57;9.38;;;3.05;;
70071;SDS011;57434;42.794;23.302;2023-04-15T04:41:59;8.32;;;3.50;;
70071;SDS011;57434;42.794;23.302;2023-04-15T04:43:01;8.50;;;3.08;;
70071;SDS011;57434;42.794;23.302;2023-04-15T04:44:03;9.18;;;3.05;;
70071;SDS011;57434;42.794;23.302;2023-04-15T04:45:05;8.50;;;3.20;;
70071;SDS011;57434;42.794;23.302;2023-04-15T04:46:07;9.50;;;3.33;;
70071;SDS011;57434;42.794;23.302;2023-04-15T04:47:09;9.57;;;3.33;;
70071;SDS011;57434;42.794;23.302;2023-04-15T04:48:11;7.32;;;3.22;;
70071;SDS011;57434;42.794;23.302;2023-04-15T04:49:13;7.93;;;3.03;;
70071;SDS011;57434;42.794;23.302;2023-04-15T04:50:15;7.85;;;2.65;;
70071;SDS011;57434;42.794;23.302;2023-04-15T04:51:16;6.25;;;2.63;;
70071;SDS011;57434;42.794;23.302;2023-04-15T04:52:19;6.78;;;2.55;;
70071;SDS011;57434;42.794;23.302;2023-04-15T04:53:21;6.75;;;2.53;;
70071;SDS011;57434;42.794;23.302;2023-04-15T04:54:23;10.63;;;3.30;;
70071;SDS011;57434;42.794;23.302;2023-04-15T04:55:25;22.63;;;6.87;;
70071;SDS011;57434;42.794;23.302;2023-04-15T04:56:26;27.55;;;7.13;;
70071;SDS011;57434;42.794;23.302;2023-04-15T04:57:28;33.78;;;7.60;;
70071;SDS011;57434;42.794;23.302;2023-04-15T04:58:30;18.58;;;5.20;;
70071;SDS011;57434;42.794;23.302;2023-04-15T04:59:32;11.25;;;3.65;;
70071;SDS011;57434;42.794;23.302;2023-04-15T05:00:34;13.05;;;4.13;;
70071;SDS011;57434;42.794;23.302;2023-04-15T05:01:36;14.05;;;5.47;;
70071;SDS011;57434;42.794;23.302;2023-04-15T05:02:38;17.20;;;5.82;;
70071;SDS011;57434;42.794;23.302;2023-04-15T05:03:40;14.20;;;6.30;;
70071;SDS011;57434;42.794;23.302;2023-04-15T05:04:42;16.60;;;6.30;;
70071;SDS011;57434;42.794;23.302;2023-04-15T05:05:44;20.27;;;6.73;;
70071;SDS011;57434;42.794;23.302;2023-04-15T05:06:46;18.92;;;6.65;;
70071;SDS011;57434;42.794;23.302;2023-04-15T05:07:48;25.92;;;9.65;;
70071;SDS011;57434;42.794;23.302;2023-04-15T05:08:50;26.05;;;13.30;;
70071;SDS011;57434;42.794;23.302;2023-04-15T05:09:52;17.52;;;8.63;;
70071;SDS011;57434;42.794;23.302;2023-04-15T05:10:54;15.57;;;6.55;;
70071;SDS011;57434;42.794;23.302;2023-04-15T05:11:56;14.90;;;7.28;;
70071;SDS011;57434;42.794;23.302;2023-04-15T05:12:58;12.85;;;6.53;;
70071;SDS011;57434;42.794;23.302;2023-04-15T05:14:00;17.77;;;7.68;;
70071;SDS011;57434;42.794;23.302;2023-04-15T05:15:02;15.02;;;7.45;;
70071;SDS011;57434;42.794;23.302;2023-04-15T05:16:04;14.43;;;6.37;;
70071;SDS011;57434;42.794;23.302;2023-04-15T05:17:07;15.40;;;7.75;;
70071;SDS011;57434;42.794;23.302;2023-04-15T05:18:09;13.25;;;6.68;;
70071;SDS011;57434;42.794;23.302;2023-04-15T05:19:11;14.98;;;7.38;;
70071;SDS011;57434;42.794;23.302;2023-04-15T05:20:12;13.88;;;6.47;;
70071;SDS011;57434;42.794;23.302;2023-04-15T05:21:14;23.05;;;10.65;;
70071;SDS011;57434;42.794;23.302;2023-04-15T05:22:17;13.35;;;6.90;;
70071;SDS011;57434;42.794;23.302;2023-04-15T05:23:19;11.07;;;4.68;;
70071;SDS011;57434;42.794;23.302;2023-04-15T05:24:20;9.23;;;5.43;;
70071;SDS011;57434;42.794;23.302;2023-04-15T05:25:22;10.45;;;4.97;;
70071;SDS011;57434;42.794;23.302;2023-04-15T05:26:24;10.63;;;4.13;;
70071;SDS011;57434;42.794;23.302;2023-04-15T05:27:26;9.00;;;3.92;;
70071;SDS011;57434;42.794;23.302;2023-04-15T05:28:28;10.55;;;4.00;;
70071;SDS011;57434;42.794;23.302;2023-04-15T05:29:30;9.50;;;4.03;;
70071;SDS011;57434;42.794;23.302;2023-04-15T05:30:32;10.05;;;3.92;;
70071;SDS011;57434;42.794;23.302;2023-04-15T05:31:34;10.50;;;4.20;;
70071;SDS011;57434;42.794;23.302;2023-04-15T05:32:36;9.30;;;4.13;;
70071;SDS011;57434;42.794;23.302;2023-04-15T05:33:38;10.43;;;4.63;;
70071;SDS011;57434;42.794;23.302;2023-04-15T05:34:40;9.40;;;3.83;;
70071;SDS011;57434;42.794;23.302;2023-04-15T05:35:42;9.55;;;4.22;;
70071;SDS011;57434;42.794;23.302;2023-04-15T05:36:43;9.93;;;4.27;;
70071;SDS011;57434;42.794;23.302;2023-04-15T05:37:45;11.00;;;4.53;;
70071;SDS011;57434;42.794;23.302;2023-04-15T05:38:47;13.45;;;5.65;;
70071;SDS011;57434;42.794;23.302;2023-04-15T05:39:49;17.92;;;6.45;;
70071;SDS011;57434;42.794;23.302;2023-04-15T05:40:51;15.80;;;7.20;;
70071;SDS011;57434;42.794;23.302;2023-04-15T05:41:53;20.33;;;9.20;;
70071;SDS011;57434;42.794;23.302;2023-04-15T05:42:55;17.30;;;8.10;;
70071;SDS011;57434;42.794;23.302;2023-04-15T05:43:57;17.75;;;7.80;;
70071;SDS011;57434;42.794;23.302;2023-04-15T05:44:59;11.02;;;5.30;;
70071;SDS011;57434;42.794;23.302;2023-04-15T05:46:01;14.02;;;5.82;;
70071;SDS011;57434;42.794;23.302;2023-04-15T05:47:03;12.70;;;5.80;;
70071;SDS011;57434;42.794;23.302;2023-04-15T05:48:04;10.93;;;4.93;;
70071;SDS011;57434;42.794;23.302;2023-04-15T05:49:06;14.63;;;5.85;;
70071;SDS011;57434;42.794;23.302;2023-04-15T05:50:08;12.60;;;6.22;;
70071;SDS011;57434;42.794;23.302;2023-04-15T05:51:11;12.15;;;5.30;;
70071;SDS011;57434;42.794;23.302;2023-04-15T05:52:12;14.23;;;6.38;;
70071;SDS011;57434;42.794;23.302;2023-04-15T05:53:14;10.20;;;5.65;;
70071;SDS011;57434;42.794;23.302;2023-04-15T05:54:16;12.02;;;5.65;;
70071;SDS011;57434;42.794;23.302;2023-04-15T05:55:20;11.07;;;6.07;;
70071;SDS011;57434;42.794;23.302;2023-04-15T05:56:22;14.20;;;5.45;;
70071;SDS011;57434;42.794;23.302;2023-04-15T05:57:24;11.83;;;5.60;;
70071;SDS011;57434;42.794;23.302;2023-04-15T05:58:26;11.98;;;5.60;;
70071;SDS011;57434;42.794;23.302;2023-04-15T05:59:27;13.57;;;5.10;;
70071;SDS011;57434;42.794;23.302;2023-04-15T06:00:29;9.82;;;4.68;;
70071;SDS011;57434;42.794;23.302;2023-04-15T06:01:32;11.20;;;4.57;;
70071;SDS011;57434;42.794;23.302;2023-04-15T06:02:34;12.07;;;4.47;;
70071;SDS011;57434;42.794;23.302;2023-04-15T06:03:36;13.82;;;4.93;;
70071;SDS011;57434;42.794;23.302;2023-04-15T06:04:38;11.55;;;4.68;;
70071;SDS011;57434;42.794;23.302;2023-04-15T06:05:40;10.55;;;5.35;;
70071;SDS011;57434;42.794;23.302;2023-04-15T06:06:42;12.52;;;5.35;;